Terminal Aerodrome Forecast
Issued by NWS

Home | Current Version | Previous Version | Text Only | Print | Product List | Glossary On
Versions: 1 2 3 4 5 6 7 8 9 10 11 12 13 14 15 16 17 18 19 20 21 22 23 24 25 26
346
FTUS45 KGJT 061729
TAFTEX
TAF
KTEX 061729Z 0618/0718 VRB03KT P6SM SCT035 BKN045 OVC050
     FM062000 21014G34KT P6SM VCSH BKN035
     FM062300 24017G38KT P6SM VCSH BKN040
     FM070000 24011G30KT P6SM VCSH BKN050 WS020/23040KT
     FM070600 24017G42KT P6SM VCSH OVC070
     FM070900 26014G37KT 5SM BR VCSH OVC030=

USA.gov is the U.S. government's official web portal to all federal, state and local government web resources and services.